createdAt,value
2018-08-23T00:00:37.995Z,98546.88
2018-08-23T00:03:15.680Z,98539.31
2018-08-23T00:05:49.496Z,98536.03
2018-08-23T00:08:17.608Z,98533.77
2018-08-23T00:10:45.924Z,98535.55
2018-08-23T00:13:14.015Z,98531.15
2018-08-23T00:15:42.178Z,98533.77
2018-08-23T00:18:10.300Z,98532.18
2018-08-23T00:20:38.739Z,98527.34
2018-08-23T00:23:07.896Z,98531.70
2018-08-23T00:25:36.740Z,98539.95
2018-08-23T00:28:05.219Z,98534.40
2018-08-23T00:30:34.524Z,98533.12
2018-08-23T00:33:03.710Z,98534.21
2018-08-23T00:35:32.503Z,98535.41
2018-08-23T00:38:01.508Z,98527.59
2018-08-23T00:40:29.658Z,98529.69
2018-08-23T00:43:03.220Z,98521.61
2018-08-23T00:45:31.720Z,98521.80
2018-08-23T00:47:59.856Z,98529.02
2018-08-23T00:51:05.669Z,98526.90
2018-08-23T00:53:35.181Z,98529.64
2018-08-23T00:56:18.607Z,98529.55
2018-08-23T00:58:54.263Z,98533.50
2018-08-23T01:01:23.380Z,98522.63
2018-08-23T01:03:52.558Z,98523.97
2018-08-23T01:06:25.570Z,98522.48
2018-08-23T01:08:54.595Z,98523.57
2018-08-23T01:11:22.728Z,98525.55
2018-08-23T01:13:51.504Z,98523.67
2018-08-23T01:16:19.610Z,98521.75
2018-08-23T01:18:47.839Z,98519.52
2018-08-23T01:21:15.952Z,98513.10
2018-08-23T01:23:44.279Z,98511.37
2018-08-23T01:26:12.560Z,98514.08
2018-08-23T01:28:40.728Z,98513.68
2018-08-23T01:31:21.840Z,98506.13
2018-08-23T01:33:53.213Z,98508.34
2018-08-23T01:36:25.962Z,98512.30
2018-08-23T01:38:54.137Z,98504.91
2018-08-23T01:41:22.235Z,98510.91
2018-08-23T01:43:51.150Z,98506.48
2018-08-23T01:46:19.232Z,98504.82
2018-08-23T01:48:51.128Z,98509.22
2018-08-23T01:51:19.220Z,98510.44
2018-08-23T01:53:49.044Z,98506.44
2018-08-23T01:56:17.922Z,98508.31
2018-08-23T01:58:46.053Z,98507.13
2018-08-23T02:01:20.005Z,98504.05
2018-08-23T02:03:48.361Z,98503.90
2018-08-23T02:06:16.496Z,98504.47
2018-08-23T02:08:46.043Z,98502.03
2018-08-23T02:11:14.410Z,98494.98
2018-08-23T02:13:42.860Z,98491.48
2018-08-23T02:16:11.029Z,98494.04
2018-08-23T02:18:39.142Z,98498.80
2018-08-23T02:21:11.093Z,98490.31
2018-08-23T02:23:50.483Z,98504.70
2018-08-23T02:26:18.607Z,98504.05
2018-08-23T02:28:48.267Z,98493.24
2018-08-23T02:31:16.435Z,98498.61
2018-08-23T02:33:45.492Z,98497.31
2018-08-23T02:36:19.606Z,98494.73
2018-08-23T02:38:51.053Z,98499.59
2018-08-23T02:41:19.194Z,98491.10
2018-08-23T02:43:47.859Z,98495.48
2018-08-23T02:46:16.215Z,98490.27
2018-08-23T02:48:44.615Z,98487.15
2018-08-23T02:51:12.770Z,98493.16
2018-08-23T02:53:43.118Z,98485.43
2018-08-23T02:56:13.114Z,98488.44
2018-08-23T02:59:00.028Z,98488.32
2018-08-23T03:01:30.780Z,98493.27
2018-08-23T03:04:09.816Z,98487.27
2018-08-23T03:06:43.958Z,98488.22
2018-08-23T03:09:12.546Z,98476.95
2018-08-23T03:11:40.657Z,98476.30
2018-08-23T03:14:08.819Z,98478.50
2018-08-23T03:16:48.906Z,98473.17
2018-08-23T03:19:17.218Z,98475.50
2018-08-23T03:21:45.976Z,98470.67
2018-08-23T03:24:18.556Z,98474.13
2018-08-23T03:26:48.271Z,98469.17
2018-08-23T03:29:16.861Z,98473.33
2018-08-23T03:31:44.979Z,98469.67
2018-08-23T03:34:13.093Z,98475.08
2018-08-23T03:36:41.183Z,98473.30
2018-08-23T03:39:09.769Z,98475.88
2018-08-23T03:41:38.237Z,98477.92
2018-08-23T03:44:16.327Z,98479.81
2018-08-23T03:46:52.022Z,98478.08
2018-08-23T03:49:25.131Z,98477.92
2018-08-23T03:51:54.205Z,98477.73
2018-08-23T03:54:22.312Z,98472.94
2018-08-23T03:57:05.926Z,98476.06
2018-08-23T03:59:35.290Z,98473.10
2018-08-23T04:02:03.424Z,98472.30
2018-08-23T04:04:32.440Z,98468.30
2018-08-23T04:07:00.555Z,98473.62
2018-08-23T04:09:29.195Z,98475.31
2018-08-23T04:11:57.535Z,98474.05
2018-08-23T04:14:25.627Z,98473.40
2018-08-23T04:16:54.041Z,98468.98
2018-08-23T04:19:22.510Z,98471.73
2018-08-23T04:21:51.222Z,98478.42
2018-08-23T04:24:20.347Z,98476.78
2018-08-23T04:26:48.513Z,98474.83
2018-08-23T04:29:32.686Z,98471.30
2018-08-23T04:32:02.559Z,98478.16
2018-08-23T04:34:32.988Z,98477.30
2018-08-23T04:37:01.105Z,98470.83
2018-08-23T04:39:29.207Z,98483.06
2018-08-23T04:42:02.395Z,98481.15
2018-08-23T04:44:42.360Z,98478.86
2018-08-23T04:47:11.708Z,98485.45
2018-08-23T04:49:40.087Z,98479.11
2018-08-23T04:52:08.682Z,98482.48
2018-08-23T04:54:36.791Z,98482.11
2018-08-23T04:57:04.904Z,98477.02
2018-08-23T04:59:32.971Z,98477.82
2018-08-23T05:02:01.075Z,98481.66
2018-08-23T05:04:29.184Z,98492.93
2018-08-23T05:06:57.292Z,98493.88
2018-08-23T05:09:25.502Z,98495.95
2018-08-23T05:11:53.584Z,98496.55
2018-08-23T05:14:22.631Z,98501.23
2018-08-23T05:16:50.783Z,98497.73
2018-08-23T05:19:18.879Z,98499.41
2018-08-23T05:21:46.985Z,98494.61
2018-08-23T05:24:15.193Z,98495.14
2018-08-23T05:26:43.399Z,98490.03
2018-08-23T05:29:11.540Z,98492.53
2018-08-23T05:31:39.696Z,98492.91
2018-08-23T05:34:08.843Z,98503.01
2018-08-23T05:36:36.998Z,98500.08
2018-08-23T05:39:08.121Z,98499.10
2018-08-23T05:41:36.342Z,98505.08
2018-08-23T05:44:13.491Z,98505.73
2018-08-23T05:46:48.452Z,98501.23
2018-08-23T05:49:16.603Z,98511.45
2018-08-23T05:51:45.352Z,98509.83
2018-08-23T05:54:13.495Z,98515.31
2018-08-23T05:56:42.182Z,98508.94
2018-08-23T05:59:15.269Z,98511.23
2018-08-23T06:01:44.160Z,98504.55
2018-08-23T06:04:12.345Z,98503.88
2018-08-23T06:06:40.821Z,98504.66
2018-08-23T06:09:13.091Z,98500.61
2018-08-23T06:11:41.456Z,98495.98
2018-08-23T06:14:09.657Z,98493.15
2018-08-23T06:16:46.012Z,98487.98
2018-08-23T06:19:14.692Z,98493.79
2018-08-23T06:21:42.857Z,98491.21
2018-08-23T06:24:11.269Z,98493.47
2018-08-23T06:26:46.318Z,98492.41
2018-08-23T06:29:20.517Z,98501.08
2018-08-23T06:31:59.927Z,98494.69
2018-08-23T06:34:32.835Z,98493.46
2018-08-23T06:37:00.943Z,98497.84
2018-08-23T06:39:29.080Z,98496.63
2018-08-23T06:41:58.582Z,98494.80
2018-08-23T06:44:34.142Z,98492.31
2018-08-23T06:47:02.360Z,98486.94
2018-08-23T06:49:30.484Z,98492.45
2018-08-23T06:52:10.132Z,98487.66
2018-08-23T06:54:38.269Z,98479.31
2018-08-23T06:57:06.376Z,98486.12
2018-08-23T06:59:34.584Z,98489.13
2018-08-23T07:02:02.731Z,98480.19
2018-08-23T07:04:30.845Z,98483.52
2018-08-23T07:06:58.967Z,98484.14
2018-08-23T07:09:27.083Z,98479.64
2018-08-23T07:12:04.603Z,98479.27
2018-08-23T07:14:34.050Z,98482.98
2018-08-23T07:17:16.735Z,98483.05
2018-08-23T07:19:45.045Z,98484.28
2018-08-23T07:22:16.119Z,98487.02
2018-08-23T07:24:45.443Z,98483.95
2018-08-23T07:27:14.679Z,98481.94
2018-08-23T07:29:46.027Z,98483.75
2018-08-23T07:32:21.955Z,98482.94
2018-08-23T07:34:59.191Z,98481.50
2018-08-23T07:37:27.330Z,98483.59
2018-08-23T07:40:00.947Z,98478.25
2018-08-23T07:42:31.062Z,98484.47
2018-08-23T07:44:59.964Z,98477.66
2018-08-23T07:47:28.346Z,98477.97
2018-08-23T07:49:58.369Z,98481.20
2018-08-23T07:52:28.458Z,98480.61
2018-08-23T07:54:57.389Z,98487.03
2018-08-23T07:57:25.792Z,98482.71
2018-08-23T07:59:57.768Z,98476.97
2018-08-23T08:02:26.415Z,98488.06
2018-08-23T08:04:54.611Z,98480.62
2018-08-23T08:07:28.470Z,98480.11
2018-08-23T08:09:57.684Z,98477.80
2018-08-23T08:12:37.500Z,98478.87
2018-08-23T08:15:12.128Z,98478.98
2018-08-23T08:17:40.228Z,98481.97
2018-08-23T08:20:09.833Z,98480.12
2018-08-23T08:22:38.024Z,98484.01
2018-08-23T08:25:17.683Z,98480.77
2018-08-23T08:27:46.148Z,98479.30
2018-08-23T08:30:16.824Z,98488.62
2018-08-23T08:32:45.459Z,98487.75
2018-08-23T08:35:15.207Z,98490.19
2018-08-23T08:37:43.993Z,98485.43
2018-08-23T08:40:18.394Z,98490.89
2018-08-23T08:42:46.496Z,98492.09
2018-08-23T08:45:14.734Z,98487.91
2018-08-23T08:47:44.340Z,98487.61
2018-08-23T08:50:12.443Z,98486.09
2018-08-23T08:52:40.590Z,98488.84
2018-08-23T08:55:10.323Z,98491.25
2018-08-23T08:57:41.641Z,98483.19
2018-08-23T09:00:10.293Z,98481.59
2018-08-23T09:02:38.448Z,98483.06
2018-08-23T09:05:06.681Z,98477.31
2018-08-23T09:07:35.783Z,98481.84
2018-08-23T09:10:04.472Z,98477.94
2018-08-23T09:12:33.051Z,98479.39
2018-08-23T09:15:01.147Z,98483.77
2018-08-23T09:17:45.492Z,98477.07
2018-08-23T09:20:16.800Z,98479.20
2018-08-23T09:22:53.915Z,98480.08
2018-08-23T09:25:29.458Z,98472.92
2018-08-23T09:27:57.552Z,98472.66
2018-08-23T09:30:25.901Z,98468.52
2018-08-23T09:32:54.116Z,98467.19
2018-08-23T09:35:26.407Z,98466.25
2018-08-23T09:37:56.611Z,98462.31
2018-08-23T09:40:25.247Z,98464.17
2018-08-23T09:42:53.463Z,98459.21
2018-08-23T09:45:22.107Z,98462.95
2018-08-23T09:47:50.234Z,98454.91
2018-08-23T09:50:18.445Z,98455.29
2018-08-23T09:52:48.709Z,98451.44
2018-08-23T09:55:19.089Z,98434.11
2018-08-23T09:57:47.717Z,98440.99
2018-08-23T10:00:21.640Z,98439.12
2018-08-23T10:02:55.366Z,98441.48
2018-08-23T10:05:28.980Z,98435.55
2018-08-23T10:08:02.759Z,98427.86
2018-08-23T10:10:36.291Z,98434.94
2018-08-23T10:13:10.000Z,98426.41
2018-08-23T10:15:43.949Z,98425.05
2018-08-23T10:18:17.621Z,98410.74
2018-08-23T10:20:51.182Z,98417.63
2018-08-23T10:23:22.180Z,98423.00
2018-08-23T10:25:51.367Z,98421.73
2018-08-23T10:28:20.709Z,98413.70
2018-08-23T10:30:49.068Z,98418.36
2018-08-23T10:33:17.560Z,98416.66
2018-08-23T10:35:46.742Z,98420.80
2018-08-23T22:13:10.867Z,98288.75
2018-08-23T22:15:44.347Z,98280.09
2018-08-23T22:18:12.440Z,98277.34
2018-08-23T22:20:40.542Z,98280.23
2018-08-23T22:23:08.660Z,98281.36
2018-08-23T22:25:37.316Z,98283.91
2018-08-23T22:28:05.718Z,98276.80
2018-08-23T22:30:33.845Z,98284.17
2018-08-23T22:33:01.979Z,98287.06
2018-08-23T22:35:30.253Z,98284.82
2018-08-23T22:37:58.387Z,98281.70
2018-08-23T22:40:26.852Z,98288.31
2018-08-23T22:42:54.976Z,98284.61
2018-08-23T22:45:23.118Z,98284.40
2018-08-23T22:47:51.227Z,98280.58
2018-08-23T22:50:19.328Z,98285.72
2018-08-23T22:52:47.436Z,98284.80
2018-08-23T22:55:15.553Z,98286.66
2018-08-23T22:57:43.664Z,98276.35
2018-08-23T23:00:11.757Z,98270.69
2018-08-23T23:02:40.788Z,98271.84
2018-08-23T23:05:09.437Z,98266.58
2018-08-23T23:07:37.564Z,98260.94
2018-08-23T23:10:06.141Z,98255.50
2018-08-23T23:12:34.248Z,98257.05
2018-08-23T23:15:06.187Z,98255.27
2018-08-23T23:17:34.858Z,98245.16
2018-08-23T23:20:02.959Z,98240.95
2018-08-23T23:22:31.072Z,98241.98
2018-08-23T23:25:01.403Z,98240.94
2018-08-23T23:27:29.723Z,98238.98
2018-08-23T23:29:58.280Z,98227.16
2018-08-23T23:32:26.412Z,98218.85
2018-08-23T23:34:54.891Z,98218.13
2018-08-23T23:37:23.327Z,98229.03
2018-08-23T23:39:51.472Z,98230.66
2018-08-23T23:42:19.567Z,98227.69
2018-08-23T23:44:47.676Z,98220.47
2018-08-23T23:47:15.779Z,98223.35
2018-08-23T23:49:43.935Z,98217.17
2018-08-23T23:52:12.438Z,98215.63
2018-08-23T23:54:40.536Z,98217.37
2018-08-23T23:57:08.937Z,98221.75
2018-08-23T23:59:37.042Z,98218.27
